ADDS METAR Data INFO
IDs: Format: Raw Decoded Include TAF

Data at: 0305 UTC 22 Apr 2018

KECS 220255Z AUTO 15009KT 10SM CLR 05/01 A3015 RMK AO2
KECS 220235Z AUTO 14009KT 10SM CLR 05/01 A3013 RMK AO2
KECS 220215Z AUTO 15009KT 10SM CLR 06/01 A3012 RMK AO2
KECS 220155Z AUTO 15011KT 10SM CLR 06/01 A3012 RMK AO2
KECS 220135Z AUTO 15011KT 10SM CLR 07/01 A3011 RMK AO2
KECS 220115Z AUTO 15014G19KT 10SM CLR 08/01 A3011 RMK AO2
KECS 220055Z AUTO 14018G23KT 10SM CLR 10/01 A3010 RMK AO2
KECS 220035Z AUTO 15017G23KT 10SM SCT045 11/01 A3011 RMK AO2
KECS 220015Z AUTO 14013KT 10SM CLR 12/00 A3011 RMK AO2
KECS 212355Z AUTO 15009G18KT 10SM SCT045 12/00 A3011 RMK AO2
KECS 212335Z AUTO 17010G18KT 10SM SCT045 13/00 A3011 RMK AO2
KECS 212315Z AUTO 15011G17KT 10SM CLR 12/00 A3011 RMK AO2
KECS 212255Z AUTO 16011G18KT 10SM CLR 13/00 A3011 RMK AO2
KECS 212235Z AUTO 18010G20KT 10SM CLR 13/00 A3011 RMK AO2
KECS 212215Z AUTO 16010G17KT 10SM CLR 13/00 A3011 RMK AO2
KECS 212200Z AUTO 18010G20KT 10SM CLR 12/00 A3011 RMK AO2
KECS 212135Z AUTO 17011G19KT 132V192 10SM CLR 12/00 A3012 RMK AO2
KECS 212115Z AUTO 18009G14KT 10SM CLR 12/00 A3013 RMK AO2
KECS 212055Z AUTO 17009G15KT 142V202 10SM CLR 12/00 A3014 RMK AO2
KECS 212035Z AUTO 15010G16KT 132V192 10SM CLR 11/00 A3015 RMK AO2
KECS 212015Z AUTO 14008KT 112V172 10SM CLR 11/00 A3015 RMK AO2
KECS 211955Z AUTO 15009KT 112V182 10SM SCT028 10/01 A3015 RMK AO2
KECS 211935Z AUTO 13007KT 10SM BKN026 10/01 A3016 RMK AO2
KECS 211915Z AUTO 14006G14KT 10SM BKN024 08/00 A3017 RMK AO2
KECS 211855Z AUTO 16006KT 10SM BKN022 07/00 A3017 RMK AO2
KECS 211835Z AUTO 16007G17KT 122V202 10SM BKN020 07/01 A3018 RMK AO2
KECS 211815Z AUTO 17009G16KT 142V202 10SM OVC020 06/01 A3019 RMK AO2
KECS 211755Z AUTO 17011G15KT 10SM BKN020 OVC025 06/00 A3019 RMK AO2
KECS 211735Z AUTO 16009G17KT 10SM OVC018 05/01 A3020 RMK AO2
KECS 211715Z AUTO 17009G15KT 10SM OVC018 05/01 A3020 RMK AO2
KECS 211655Z AUTO 16011G18KT 10SM OVC016 05/01 A3020 RMK AO2
KECS 211635Z AUTO 17013G16KT 10SM OVC016 04/01 A3020 RMK AO2
KECS 211615Z AUTO 17014G18KT 10SM OVC014 04/01 A3020 RMK AO2
KECS 211555Z AUTO 15008G14KT 10SM OVC014 04/01 A3020 RMK AO2
KECS 211540Z AUTO 13010G15KT 10SM OVC012 04/01 A3020 RMK AO2
KECS 211515Z AUTO 14009G14KT 10SM OVC012 03/01 A3020 RMK AO2
KECS 211455Z AUTO 14010G15KT 10SM OVC014 02/02 A3020 RMK AO2
KECS 211435Z AUTO 14008KT 10SM OVC014 02/02 A3021 RMK AO2
KECS 211415Z AUTO 16008G14KT 10SM OVC014 02/02 A3021 RMK AO2
KECS 211355Z AUTO 15007KT 10SM SCT011 OVC016 02/02 A3021 RMK AO2
KECS 211335Z AUTO 14009KT 10SM OVC014 02/02 A3021 RMK AO2
KECS 211315Z AUTO 14006KT 10SM OVC014 02/02 A3021 RMK AO2
KECS 211255Z AUTO 14005KT 10SM OVC014 02/02 A3020 RMK AO2
KECS 211235Z AUTO 16005KT 10SM OVC012 02/02 A3020 RMK AO2
KECS 211215Z AUTO 13007KT 10SM OVC012 02/02 A3019 RMK AO2
KECS 211155Z AUTO 14006KT 10SM OVC012 02/02 A3020 RMK AO2
KECS 211135Z AUTO 14006KT 10SM OVC012 02/02 A3020 RMK AO2
KECS 211115Z AUTO 14005KT 10SM OVC012 02/02 A3020 RMK AO2
KECS 211055Z AUTO 15006KT 10SM OVC010 02/02 A3021 RMK AO2
KECS 211035Z AUTO 14008KT 10SM OVC010 02/02 A3021 RMK AO2
KECS 211015Z AUTO 14009G15KT 10SM OVC010 02/02 A3021 RMK AO2
KECS 210955Z AUTO 13011G17KT 10SM -DZ OVC010 02/01 A3021 RMK AO2
KECS 210935Z AUTO 13010G19KT 10SM -DZ OVC010 02/02 A3021 RMK AO2
KECS 210915Z AUTO 14011KT 10SM -DZ OVC010 02/02 A3021 RMK AO2
KECS 210855Z AUTO 14008KT 10SM DZ SCT005 OVC012 02/02 A3021 RMK AO2
KECS 210835Z AUTO 15008KT 7SM DZ SCT005 OVC012 02/02 A3022 RMK AO2
KECS 210815Z AUTO 14010G14KT 10SM DZ OVC010 02/01 A3022 RMK AO2
KECS 210755Z AUTO 13010G17KT 10SM DZ BKN012 OVC018 02/02 A3022 RMK AO2
KECS 210735Z AUTO 14010G17KT 10SM DZ SCT009 BKN016 02/02 A3022 RMK AO2
KECS 210715Z AUTO 14011G19KT 10SM DZ BKN010 OVC014 02/02 A3022 RMK AO2
KECS 210655Z AUTO 14012G18KT 10SM RA OVC014 02/02 A3022 RMK AO2
KECS 210635Z AUTO 15012G16KT 10SM -RA OVC016 02/02 A3021 RMK AO2
KECS 210615Z AUTO 14008G14KT 10SM SCT008 OVC018 02/02 A3021 RMK AO2
KECS 210555Z AUTO 13010G15KT 10SM SCT008 OVC018 02/01 A3021 RMK AO2
KECS 210535Z AUTO 13009G15KT 10SM SCT006 OVC016 02/01 A3021 RMK AO2
KECS 210515Z AUTO 13007KT 10SM OVC018 02/00 A3021 RMK AO2
KECS 210455Z AUTO 12008G14KT 10SM -RA OVC016 02/00 A3021 RMK AO2
KECS 210435Z AUTO 13008G14KT 10SM OVC018 02/00 A3021 RMK AO2
KECS 210415Z AUTO 13008G15KT 10SM OVC018 02/00 A3021 RMK AO2
KECS 210355Z AUTO 13010G19KT 10SM OVC018 02/00 A3021 RMK AO2
KECS 210335Z AUTO 13009G14KT 10SM BKN018 OVC025 02/00 A3021 RMK AO2
KECS 210315Z AUTO 13008G14KT 10SM SCT021 OVC027 02/00 A3020 RMK AO2
KECS 210255Z AUTO 13010G18KT 10SM SCT017 OVC026 02/00 A3020 RMK AO2
KECS 210235Z AUTO 13013G17KT 10SM SCT018 OVC026 02/00 A3019 RMK AO2
KECS 210215Z AUTO 13012G18KT 10SM BKN016 BKN026 02/00 A3018 RMK AO2
KECS 210155Z AUTO 13012G19KT 10SM -RA BKN016 OVC029 02/00 A3017 RMK AO2
KECS 210135Z AUTO 13012G21KT 10SM -DZ SCT011 BKN016 BKN021 02/00 A3017 RMK AO2
KECS 210115Z AUTO 13015G22KT 10SM OVC020 03/00 A3017 RMK AO2
KECS 210055Z AUTO 13014G20KT 10SM BKN020 BKN025 BKN034 03/00 A3017 RMK AO2
KECS 210035Z AUTO 13013KT 10SM SCT017 SCT022 BKN029 03/01 A3016 RMK AO2
KECS 210015Z AUTO 13013G18KT 7SM -RA BKN009 BKN015 OVC020 03/02 A3016 RMK AO2
KECS 202355Z AUTO 14011G18KT 7SM -DZ BKN009 BKN015 OVC025 04/01 A3016 RMK AO2
KECS 202335Z AUTO 14012G22KT 10SM -RA SCT009 BKN013 BKN022 04/01 A3015 RMK AO2
KECS 202315Z AUTO 13016G22KT 10SM -RA BKN007 BKN021 BKN030 04/02 A3014 RMK AO2
KECS 202255Z AUTO 14012G24KT 10SM -RA BKN007 BKN012 BKN023 05/02 A3014 RMK AO2
KECS 202235Z AUTO 14013G21KT 10SM -RA SCT007 BKN030 06/01 A3012 RMK AO2
KECS 202215Z AUTO 11014G21KT 10SM OVC033 06/01 A3011 RMK AO2
KECS 202155Z AUTO 11014G22KT 10SM BKN033 07/01 A3011 RMK AO2
KECS 202135Z AUTO 11017G23KT 10SM BKN033 07/01 A3011 RMK AO2
KECS 202115Z AUTO 12017G26KT 10SM SCT009 SCT022 BKN033 07/01 A3011 RMK AO2
KECS 202055Z AUTO 11011G26KT 7SM -RA SCT005 SCT009 BKN022 06/01 A3010 RMK AO2
KECS 202035Z AUTO 12020G27KT 10SM SCT045 SCT070 10/M01 A3009 RMK AO2
KECS 202015Z AUTO 14019G28KT 10SM BKN047 BKN090 11/M01 A3008 RMK AO2
KECS 201955Z AUTO 14015G24KT 10SM SCT047 11/M01 A3008 RMK AO2
KECS 201935Z AUTO 12018G26KT 10SM SCT049 11/M02 A3009 RMK AO2
KECS 201915Z AUTO 14017G27KT 10SM SCT049 10/M02 A3009 RMK AO2
KECS 201855Z AUTO 13015G27KT 10SM CLR 11/M03 A3010 RMK AO2 LTG DSNT SE
KECS 201835Z AUTO 12013G24KT 10SM CLR 11/M02 A3009 RMK AO2
KECS 201815Z AUTO 13014G23KT 10SM CLR 11/M02 A3010 RMK AO2
KECS 201755Z AUTO 14012G18KT 10SM CLR 11/M02 A3009 RMK AO2
KECS 201735Z AUTO 13014G23KT 102V162 10SM CLR 10/M02 A3010 RMK AO2
KECS 201715Z AUTO 15013G16KT 10SM CLR 09/M03 A3011 RMK AO2
KECS 201655Z AUTO 15014G20KT 10SM CLR 08/M03 A3010 RMK AO2
KECS 201635Z AUTO 14015G20KT 10SM CLR 08/M03 A3009 RMK AO2 LTG DSNT S
KECS 201615Z AUTO 14012G19KT 10SM CLR 08/M03 A3010 RMK AO2
KECS 201555Z AUTO 14011G21KT 10SM CLR 07/M03 A3009 RMK AO2
KECS 201535Z AUTO 14013G21KT 10SM CLR 07/M03 A3010 RMK AO2
KECS 201515Z AUTO 12016G22KT 10SM CLR 07/M03 A3010 RMK AO2